Time;durP1;ratioP1;P1;durP2;ratioP2;P2;SDS_P1;SDS_P2;PMS_P1;PMS_P2;Temp;Humidity;BMP_temperature;BMP_pressure;BME280_temperature;BME280_humidity;BME280_pressure;Samples;Min_cycle;Max_cycle;Signal;HPM_P1;HPM_P2
2022/04/09 00:00:17;;;;;;;;;;;7.80;99.90;;;;;;4991561;28;20403;-84
2022/04/09 00:02:43;;;;;;;;;;;7.90;99.90;;;;;;4992757;28;19918;-84
2022/04/09 00:05:11;;;;;;;;;;;7.80;99.90;;;;;;4991627;28;19958;-84
2022/04/09 00:07:36;;;;;;;;;;;7.80;99.90;;;;;;4991358;28;20310;-84
2022/04/09 00:10:03;;;;;;;;;;;7.80;99.90;;;;;;4992666;28;19910;-84
2022/04/09 00:12:28;;;;;;;;;;;7.80;99.90;;;;;;4992695;28;20414;-84
2022/04/09 00:14:54;;;;;;;;;;;7.80;99.90;;;;;;4992964;28;19964;-84
2022/04/09 00:17:19;;;;;;;;;;;7.80;99.90;;;;;;4991178;28;20310;-84
2022/04/09 00:19:45;;;;;;;;;;;7.80;99.90;;;;;;4991540;28;19910;-84
2022/04/09 00:22:10;;;;;;;;;;;7.80;99.90;;;;;;4992616;28;20299;-84
2022/04/09 00:24:36;;;;;;;;;;;7.80;99.90;;;;;;4992546;28;20275;-84
2022/04/09 00:27:02;;;;;;;;;;;7.90;99.90;;;;;;4992841;28;19910;-84
2022/04/09 00:29:27;;;;;;;;;;;7.90;99.90;;;;;;4992314;28;19921;-84
2022/04/09 00:31:53;;;;;;;;;;;8.00;99.90;;;;;;4992101;28;19910;-84
2022/04/09 00:34:18;;;;;;;;;;;8.00;99.90;;;;;;4992188;28;20000;-84
2022/04/09 00:36:44;;;;;;;;;;;8.00;99.90;;;;;;4992358;28;20043;-84
2022/04/09 00:39:09;;;;;;;;;;;8.00;99.90;;;;;;4992338;28;19937;-84
2022/04/09 00:41:38;;;;;;;;;;;8.00;99.90;;;;;;4992170;28;20007;-84
2022/04/09 00:44:14;;;;;;;;;;;8.00;99.90;;;;;;4992058;28;19910;-84
2022/04/09 00:46:39;;;;;;;;;;;8.00;99.90;;;;;;4991990;28;19909;-84
2022/04/09 00:49:05;;;;;;;;;;;7.90;99.90;;;;;;4991893;28;19910;-84
2022/04/09 00:51:30;;;;;;;;;;;7.90;99.90;;;;;;5006860;28;19910;-84
2022/04/09 00:53:56;;;;;;;;;;;8.00;99.90;;;;;;4991966;28;19910;-84
2022/04/09 00:56:22;;;;;;;;;;;8.10;99.90;;;;;;4991954;28;20307;-84
2022/04/09 00:58:54;;;;;;;;;;;8.10;99.90;;;;;;4992055;28;19910;-85
2022/04/09 01:01:20;;;;;;;;;;;8.10;99.90;;;;;;4991746;28;19910;-84
2022/04/09 01:03:46;;;;;;;;;;;8.10;99.90;;;;;;4990343;28;20289;-84
2022/04/09 01:06:12;;;;;;;;;;;8.20;99.90;;;;;;4991474;28;20398;-84
2022/04/09 01:08:37;;;;;;;;;;;8.30;99.90;;;;;;4991126;28;19964;-84
2022/04/09 01:11:03;;;;;;;;;;;8.30;99.90;;;;;;4991462;28;20329;-84
2022/04/09 01:13:29;;;;;;;;;;;8.30;99.90;;;;;;4991507;28;20342;-84
2022/04/09 01:15:54;;;;;;;;;;;8.20;99.90;;;;;;4991393;28;20000;-84
2022/04/09 01:18:20;;;;;;;;;;;8.20;99.90;;;;;;4991588;28;19937;-84
2022/04/09 01:20:46;;;;;;;;;;;8.10;99.90;;;;;;4991467;28;19955;-84
2022/04/09 01:23:11;;;;;;;;;;;8.10;99.90;;;;;;4989847;28;19963;-84
2022/04/09 01:25:40;;;;;;;;;;;8.00;99.90;;;;;;4991660;28;19910;-84
2022/04/09 01:28:06;;;;;;;;;;;7.90;99.90;;;;;;4989817;28;19945;-84
2022/04/09 01:30:31;;;;;;;;;;;7.90;99.90;;;;;;4991318;28;19953;-84
2022/04/09 01:32:57;;;;;;;;;;;7.90;99.90;;;;;;4991283;28;19917;-84
2022/04/09 01:35:22;;;;;;;;;;;7.80;99.90;;;;;;4990111;28;20375;-84
2022/04/09 01:37:48;;;;;;;;;;;7.80;99.90;;;;;;4991307;28;20349;-84
2022/04/09 01:40:13;;;;;;;;;;;7.80;99.90;;;;;;4991377;28;20280;-85
2022/04/09 01:42:39;;;;;;;;;;;7.80;99.90;;;;;;4993841;28;20294;-84
2022/04/09 01:45:05;;;;;;;;;;;7.70;99.90;;;;;;4995150;28;19980;-84
2022/04/09 01:47:31;;;;;;;;;;;7.60;99.90;;;;;;4995123;28;19917;-84
2022/04/09 01:49:57;;;;;;;;;;;7.60;99.90;;;;;;4993902;28;19910;-84
2022/04/09 01:52:22;;;;;;;;;;;7.50;99.90;;;;;;4995268;28;19917;-84
2022/04/09 01:54:48;;;;;;;;;;;7.50;99.90;;;;;;4995251;28;20001;-84
2022/04/09 01:57:15;;;;;;;;;;;7.60;99.90;;;;;;4995169;28;20004;-84
2022/04/09 01:59:43;;;;;;;;;;;7.60;99.90;;;;;;4995185;28;19917;-85
2022/04/09 02:02:09;;;;;;;;;;;7.70;99.90;;;;;;4993344;28;19925;-84
2022/04/09 02:04:35;;;;;;;;;;;7.70;99.90;;;;;;4994863;28;19955;-83
2022/04/09 02:07:00;;;;;;;;;;;7.70;99.90;;;;;;4994723;28;19910;-87
2022/04/09 02:09:26;;;;;;;;;;;7.70;99.90;;;;;;4994917;28;19910;-87
2022/04/09 02:11:52;;;;;;;;;;;7.80;99.90;;;;;;4993710;28;19960;-86
2022/04/09 02:14:17;;;;;;;;;;;7.80;99.90;;;;;;4994760;28;20024;-86
2022/04/09 02:16:43;;;;;;;;;;;7.80;99.90;;;;;;4994998;28;19910;-86
2022/04/09 02:19:10;;;;;;;;;;;7.80;99.90;;;;;;4994669;28;20432;-86
2022/04/09 02:21:36;;;;;;;;;;;7.70;99.90;;;;;;4994493;28;19918;-85
2022/04/09 02:24:02;;;;;;;;;;;7.70;99.90;;;;;;4994636;28;20327;-85
2022/04/09 02:26:27;;;;;;;;;;;7.60;99.90;;;;;;4993286;28;19909;-85
2022/04/09 02:28:53;;;;;;;;;;;7.40;99.90;;;;;;4994591;28;19932;-85
2022/04/09 02:31:20;;;;;;;;;;;7.40;99.90;;;;;;4994836;28;19910;-85
2022/04/09 02:33:45;;;;;;;;;;;7.30;99.90;;;;;;4994411;28;19910;-85
2022/04/09 02:36:12;;;;;;;;;;;7.30;99.90;;;;;;4994343;28;19929;-85
2022/04/09 02:38:38;;;;;;;;;;;7.30;99.90;;;;;;4994232;28;19933;-85
2022/04/09 02:41:04;;;;;;;;;;;7.30;99.90;;;;;;4994254;28;19910;-85
2022/04/09 02:43:29;;;;;;;;;;;7.30;99.90;;;;;;4994095;28;20012;-85
2022/04/09 02:45:55;;;;;;;;;;;7.30;99.90;;;;;;4992668;28;19920;-85
2022/04/09 02:48:21;;;;;;;;;;;7.40;99.90;;;;;;4994349;28;19960;-84
2022/04/09 02:50:48;;;;;;;;;;;7.40;99.90;;;;;;4994414;28;19953;-85
2022/04/09 02:53:14;;;;;;;;;;;7.40;99.90;;;;;;4994162;28;19917;-84
2022/04/09 02:55:39;;;;;;;;;;;7.30;99.90;;;;;;4992608;28;19910;-84
2022/04/09 02:58:05;;;;;;;;;;;7.30;99.90;;;;;;4994213;28;19910;-84
2022/04/09 03:00:31;;;;;;;;;;;7.20;99.90;;;;;;4994032;28;20314;-84
2022/04/09 03:02:56;;;;;;;;;;;7.10;99.90;;;;;;4993702;28;19917;-84
2022/04/09 03:05:22;;;;;;;;;;;7.10;99.90;;;;;;4994120;28;19921;-84
2022/04/09 03:07:47;;;;;;;;;;;7.10;99.90;;;;;;4993725;28;19931;-84
2022/04/09 03:10:13;;;;;;;;;;;7.00;99.90;;;;;;4994069;28;19910;-85
2022/04/09 03:12:42;;;;;;;;;;;6.90;99.90;;;;;;4993910;28;20001;-84
2022/04/09 03:15:08;;;;;;;;;;;6.90;99.90;;;;;;4993697;28;20015;-85
2022/04/09 03:17:33;;;;;;;;;;;6.80;99.90;;;;;;4993502;28;19961;-84
2022/04/09 03:19:59;;;;;;;;;;;6.80;99.90;;;;;;4993622;28;19909;-84
2022/04/09 03:22:24;;;;;;;;;;;6.80;99.90;;;;;;4993680;28;19918;-84
2022/04/09 03:24:50;;;;;;;;;;;6.70;99.90;;;;;;4993939;28;19917;-84
2022/04/09 03:27:15;;;;;;;;;;;6.70;99.90;;;;;;4993564;28;19971;-84
2022/04/09 03:29:41;;;;;;;;;;;6.70;99.90;;;;;;4992374;28;19960;-84
2022/04/09 03:32:07;;;;;;;;;;;6.70;99.90;;;;;;4993257;28;19916;-85
2022/04/09 03:34:33;;;;;;;;;;;6.70;99.90;;;;;;5008290;28;19910;-84
2022/04/09 03:36:58;;;;;;;;;;;6.70;99.90;;;;;;4992031;28;19964;-84
2022/04/09 03:39:24;;;;;;;;;;;6.70;99.90;;;;;;4993463;28;19913;-84
2022/04/09 03:41:49;;;;;;;;;;;6.70;99.90;;;;;;4993473;28;20346;-84
2022/04/09 03:44:15;;;;;;;;;;;6.80;99.90;;;;;;4993324;28;20354;-84
2022/04/09 03:46:41;;;;;;;;;;;6.80;99.90;;;;;;4993106;28;19913;-85
2022/04/09 03:49:06;;;;;;;;;;;6.80;99.90;;;;;;4991778;28;20281;-84
2022/04/09 03:51:32;;;;;;;;;;;6.70;99.90;;;;;;4992976;28;20374;-84
2022/04/09 03:53:57;;;;;;;;;;;6.80;99.90;;;;;;4992896;28;19959;-84
2022/04/09 03:56:23;;;;;;;;;;;6.90;99.90;;;;;;4993255;28;20009;-85
2022/04/09 03:58:49;;;;;;;;;;;6.90;99.90;;;;;;4993065;28;19916;-84
2022/04/09 04:01:14;;;;;;;;;;;7.10;99.90;;;;;;4992870;28;19914;-84
2022/04/09 04:03:40;;;;;;;;;;;7.20;99.90;;;;;;4992936;28;19917;-84
2022/04/09 04:06:06;;;;;;;;;;;7.20;99.90;;;;;;4992423;28;19913;-84
2022/04/09 04:08:31;;;;;;;;;;;7.30;99.90;;;;;;4992511;28;19922;-84
2022/04/09 04:10:57;;;;;;;;;;;7.30;99.90;;;;;;4992468;28;19910;-84
2022/04/09 04:13:22;;;;;;;;;;;7.30;99.90;;;;;;4992573;28;19957;-84
2022/04/09 04:15:48;;;;;;;;;;;7.30;99.90;;;;;;4992528;28;19923;-85
2022/04/09 04:18:13;;;;;;;;;;;7.30;99.90;;;;;;4992752;28;19913;-84
2022/04/09 04:20:39;;;;;;;;;;;7.30;99.90;;;;;;4992633;28;20402;-84
2022/04/09 04:23:05;;;;;;;;;;;7.20;99.90;;;;;;4991017;28;19921;-85
2022/04/09 04:25:30;;;;;;;;;;;7.20;99.90;;;;;;4992367;28;19909;-85
2022/04/09 04:27:56;;;;;;;;;;;7.20;99.90;;;;;;4992275;28;20275;-84
2022/04/09 04:30:21;;;;;;;;;;;7.20;99.90;;;;;;4992234;28;19909;-84
2022/04/09 04:32:47;;;;;;;;;;;7.20;99.90;;;;;;4992132;28;19910;-84
2022/04/09 04:35:12;;;;;;;;;;;7.10;99.90;;;;;;4992390;28;19910;-84
2022/04/09 04:37:38;;;;;;;;;;;7.10;99.90;;;;;;4992304;28;19909;-84
2022/04/09 04:40:05;;;;;;;;;;;7.00;99.90;;;;;;4992330;28;19910;-85
2022/04/09 04:42:30;;;;;;;;;;;7.00;99.90;;;;;;4992161;28;20428;-84
2022/04/09 04:44:56;;;;;;;;;;;6.90;99.90;;;;;;4991873;28;20016;-84
2022/04/09 04:47:21;;;;;;;;;;;7.00;99.90;;;;;;4991853;28;19963;-84
2022/04/09 04:49:47;;;;;;;;;;;6.90;99.90;;;;;;4992218;28;20383;-84
2022/04/09 04:52:12;;;;;;;;;;;6.90;99.90;;;;;;4992200;28;19909;-84
2022/04/09 04:54:38;;;;;;;;;;;7.00;99.90;;;;;;5007129;28;19910;-84
2022/04/09 04:57:03;;;;;;;;;;;7.00;99.90;;;;;;4992344;28;19925;-84
2022/04/09 04:59:29;;;;;;;;;;;7.00;99.90;;;;;;4992027;28;19996;-84
2022/04/09 05:01:54;;;;;;;;;;;7.10;99.90;;;;;;4991758;28;20345;-85
2022/04/09 05:04:20;;;;;;;;;;;7.10;99.90;;;;;;4990446;28;19918;-85
2022/04/09 05:06:45;;;;;;;;;;;7.10;99.90;;;;;;4991636;28;19944;-85
2022/04/09 05:09:13;;;;;;;;;;;7.20;99.90;;;;;;4990510;28;19953;-85
2022/04/09 05:11:39;;;;;;;;;;;7.20;99.90;;;;;;4991767;28;19909;-84
2022/04/09 05:14:04;;;;;;;;;;;7.20;99.90;;;;;;4992253;28;19924;-84
2022/04/09 05:16:30;;;;;;;;;;;7.20;99.90;;;;;;4989444;28;19926;-84
2022/04/09 05:18:55;;;;;;;;;;;7.10;99.90;;;;;;5006730;28;19937;-84
2022/04/09 05:21:21;;;;;;;;;;;7.20;99.90;;;;;;4990311;28;19910;-84
2022/04/09 05:23:46;;;;;;;;;;;7.20;99.90;;;;;;4991431;28;19921;-84
2022/04/09 05:26:12;;;;;;;;;;;7.30;99.90;;;;;;4990267;28;19964;-84
2022/04/09 05:28:37;;;;;;;;;;;7.30;99.90;;;;;;4992236;28;19922;-89
2022/04/09 05:31:04;;;;;;;;;;;7.30;99.90;;;;;;5006704;28;19917;-87
2022/04/09 05:33:30;;;;;;;;;;;7.30;99.90;;;;;;4990241;28;19916;-88
2022/04/09 05:35:56;;;;;;;;;;;7.30;99.90;;;;;;4989602;28;20000;-87
2022/04/09 05:38:22;;;;;;;;;;;7.30;99.90;;;;;;4990791;28;20383;-91
2022/04/09 05:40:48;;;;;;;;;;;7.30;99.90;;;;;;4989509;28;19910;-88
2022/04/09 05:43:13;;;;;;;;;;;7.30;99.90;;;;;;4990928;28;20346;-88
2022/04/09 05:45:39;;;;;;;;;;;7.20;99.90;;;;;;4990442;28;20325;-87
2022/04/09 05:48:05;;;;;;;;;;;7.20;99.90;;;;;;4990872;28;20355;-87
2022/04/09 05:50:30;;;;;;;;;;;7.20;99.90;;;;;;4990715;28;19910;-87
2022/04/09 05:52:56;;;;;;;;;;;7.20;99.90;;;;;;4989342;28;19956;-87
2022/04/09 05:55:21;;;;;;;;;;;7.10;99.90;;;;;;4990070;28;19910;-87
2022/04/09 05:57:47;;;;;;;;;;;7.10;99.90;;;;;;4989947;28;20378;-87
2022/04/09 06:00:13;;;;;;;;;;;7.10;99.90;;;;;;4991216;28;20096;-87
2022/04/09 06:02:39;;;;;;;;;;;7.10;99.90;;;;;;4989708;28;20325;-87
2022/04/09 06:05:05;;;;;;;;;;;7.10;99.90;;;;;;4991252;28;19959;-87
2022/04/09 06:07:31;;;;;;;;;;;7.10;99.90;;;;;;4991130;28;19925;-87
2022/04/09 06:09:57;;;;;;;;;;;7.10;99.90;;;;;;4989961;28;19910;-86
2022/04/09 06:12:22;;;;;;;;;;;7.10;99.90;;;;;;4989837;28;19910;-87
2022/04/09 06:14:48;;;;;;;;;;;7.10;99.90;;;;;;4991116;28;19917;-87
2022/04/09 06:17:13;;;;;;;;;;;7.00;99.90;;;;;;4990862;28;19927;-86
2022/04/09 06:19:39;;;;;;;;;;;7.10;99.90;;;;;;4989669;28;19913;-86
2022/04/09 06:22:05;;;;;;;;;;;7.10;99.90;;;;;;4991088;28;19929;-86
2022/04/09 06:24:30;;;;;;;;;;;7.10;99.90;;;;;;4989891;28;19979;-86
2022/04/09 06:26:56;;;;;;;;;;;7.20;99.90;;;;;;4991035;28;19909;-84
2022/04/09 06:29:21;;;;;;;;;;;7.20;99.90;;;;;;4994627;28;19917;-84
2022/04/09 06:31:47;;;;;;;;;;;7.30;99.90;;;;;;4993188;28;19931;-84
2022/04/09 06:34:16;;;;;;;;;;;7.40;99.90;;;;;;4994538;28;20375;-84
2022/04/09 06:36:42;;;;;;;;;;;7.50;99.90;;;;;;4994608;28;19910;-86
2022/04/09 06:39:08;;;;;;;;;;;7.60;99.90;;;;;;4998346;28;20338;-85
2022/04/09 06:41:33;;;;;;;;;;;7.60;99.90;;;;;;4994521;28;19910;-86
2022/04/09 06:43:59;;;;;;;;;;;7.70;99.90;;;;;;4994643;28;20355;-86
2022/04/09 06:46:25;;;;;;;;;;;7.70;99.90;;;;;;4994147;28;19914;-85
2022/04/09 06:48:51;;;;;;;;;;;7.80;99.90;;;;;;4994478;28;19913;-85
2022/04/09 06:51:17;;;;;;;;;;;7.80;99.90;;;;;;4994247;28;19910;-85
2022/04/09 06:53:42;;;;;;;;;;;7.90;99.90;;;;;;4994220;28;19925;-85
2022/04/09 06:56:08;;;;;;;;;;;7.90;99.90;;;;;;4993937;28;19910;-85
2022/04/09 06:58:34;;;;;;;;;;;7.90;99.90;;;;;;4994003;28;19965;-85
2022/04/09 07:01:00;;;;;;;;;;;8.00;99.90;;;;;;4994239;28;19937;-85
2022/04/09 07:03:26;;;;;;;;;;;8.00;99.90;;;;;;4994156;28;20374;-85
2022/04/09 07:05:52;;;;;;;;;;;8.10;99.90;;;;;;4994019;28;19957;-85
2022/04/09 07:08:17;;;;;;;;;;;8.10;99.90;;;;;;4994080;28;20326;-85
2022/04/09 07:10:43;;;;;;;;;;;8.20;99.90;;;;;;4994329;28;19910;-85
2022/04/09 07:13:09;;;;;;;;;;;8.30;99.90;;;;;;4998309;28;19929;-85
2022/04/09 07:15:34;;;;;;;;;;;8.40;99.90;;;;;;5003837;28;19913;-85
2022/04/09 07:18:00;;;;;;;;;;;8.50;99.90;;;;;;5004399;28;19913;-86
2022/04/09 07:20:26;;;;;;;;;;;8.50;99.90;;;;;;5004494;28;19906;-85
2022/04/09 07:22:51;;;;;;;;;;;8.50;99.90;;;;;;5004186;28;19921;-86
2022/04/09 07:25:17;;;;;;;;;;;8.50;99.90;;;;;;5003080;28;19906;-86
2022/04/09 07:27:43;;;;;;;;;;;8.60;99.90;;;;;;5003405;28;19906;-86
2022/04/09 07:30:10;;;;;;;;;;;8.70;99.90;;;;;;5004042;28;19910;-86
2022/04/09 07:32:36;;;;;;;;;;;8.70;99.90;;;;;;4997116;28;20001;-86
2022/04/09 07:35:01;;;;;;;;;;;8.80;99.90;;;;;;5008770;28;19941;-86
2022/04/09 07:37:27;;;;;;;;;;;8.80;99.90;;;;;;5008271;28;19916;-86
2022/04/09 07:39:53;;;;;;;;;;;8.80;99.90;;;;;;4994386;28;19921;-85
2022/04/09 07:42:19;;;;;;;;;;;8.90;99.90;;;;;;4994989;28;20716;-85
2022/04/09 07:44:44;;;;;;;;;;;8.90;99.90;;;;;;4997712;28;19952;-86
2022/04/09 07:47:10;;;;;;;;;;;9.00;99.90;;;;;;4994949;28;19918;-85
2022/04/09 07:49:35;;;;;;;;;;;9.10;99.90;;;;;;4992179;28;19910;-85
2022/04/09 07:52:01;;;;;;;;;;;9.10;99.90;;;;;;4998619;28;20137;-85
2022/04/09 07:54:29;;;;;;;;;;;9.20;99.90;;;;;;5000928;28;19964;-85
2022/04/09 07:56:55;;;;;;;;;;;9.30;99.90;;;;;;4999660;28;19921;-85
2022/04/09 07:59:20;;;;;;;;;;;9.40;99.90;;;;;;4999628;28;20272;-85
2022/04/09 08:01:46;;;;;;;;;;;9.40;99.90;;;;;;5003209;28;19906;-86
2022/04/09 08:04:11;;;;;;;;;;;9.40;99.90;;;;;;5001153;28;19906;-85
2022/04/09 08:06:37;;;;;;;;;;;9.50;99.90;;;;;;5002936;28;19913;-85
2022/04/09 08:09:03;;;;;;;;;;;9.50;99.90;;;;;;5003420;28;19981;-85
2022/04/09 08:11:28;;;;;;;;;;;9.60;99.90;;;;;;5002409;28;19906;-86
2022/04/09 08:13:54;;;;;;;;;;;9.60;99.90;;;;;;5003477;28;19980;-85
2022/04/09 08:16:19;;;;;;;;;;;9.60;99.90;;;;;;4991166;28;19913;-86
2022/04/09 08:18:45;;;;;;;;;;;9.60;99.90;;;;;;4991981;28;19945;-85
2022/04/09 08:21:11;;;;;;;;;;;9.60;99.90;;;;;;4992575;28;19964;-86
2022/04/09 08:23:36;;;;;;;;;;;9.70;99.90;;;;;;4991812;28;19922;-85
2022/04/09 08:26:02;;;;;;;;;;;9.70;99.90;;;;;;4991822;28;20114;-85
2022/04/09 08:28:31;;;;;;;;;;;9.70;99.90;;;;;;5002013;28;19933;-86
2022/04/09 08:30:57;;;;;;;;;;;9.70;99.90;;;;;;5002092;28;19969;-85
2022/04/09 08:33:22;;;;;;;;;;;9.80;99.90;;;;;;5002175;28;19913;-85
2022/04/09 08:35:48;;;;;;;;;;;9.90;99.90;;;;;;5002035;28;20516;-85
2022/04/09 08:38:14;;;;;;;;;;;10.00;99.90;;;;;;4999283;28;19925;-86
2022/04/09 08:40:40;;;;;;;;;;;9.90;99.90;;;;;;4991200;28;19910;-85
2022/04/09 08:43:05;;;;;;;;;;;9.80;99.90;;;;;;4992231;28;19918;-85
2022/04/09 08:45:34;;;;;;;;;;;9.90;99.90;;;;;;4991884;28;20314;-86
2022/04/09 08:47:59;;;;;;;;;;;10.10;99.90;;;;;;4991948;28;19914;-85
2022/04/09 08:50:26;;;;;;;;;;;10.10;99.90;;;;;;4991755;28;19932;-85
2022/04/09 08:52:52;;;;;;;;;;;10.20;99.90;;;;;;4991935;28;19964;-85
2022/04/09 08:55:17;;;;;;;;;;;10.30;99.90;;;;;;4990698;28;19924;-85
2022/04/09 08:57:43;;;;;;;;;;;10.20;99.90;;;;;;4989882;28;19910;-85
2022/04/09 09:00:13;;;;;;;;;;;10.30;99.90;;;;;;4988938;28;19910;-85
2022/04/09 09:02:53;;;;;;;;;;;10.40;99.90;;;;;;4990159;28;20020;-85
2022/04/09 09:05:39;;;;;;;;;;;10.40;99.90;;;;;;4988600;28;19936;-86
2022/04/09 09:08:05;;;;;;;;;;;10.50;99.90;;;;;;4989696;28;19928;-85
2022/04/09 09:10:31;;;;;;;;;;;10.50;99.90;;;;;;4990853;28;20386;-85
2022/04/09 09:13:01;;;;;;;;;;;10.50;99.90;;;;;;4991176;28;19988;-86
2022/04/09 09:15:27;;;;;;;;;;;10.50;99.90;;;;;;4991651;28;19949;-85
2022/04/09 09:17:57;;;;;;;;;;;10.50;99.90;;;;;;4990354;28;19953;-85
2022/04/09 09:20:23;;;;;;;;;;;10.50;99.90;;;;;;4992079;28;19909;-85
2022/04/09 09:22:49;;;;;;;;;;;10.50;99.90;;;;;;5006802;28;19918;-85
2022/04/09 09:25:14;;;;;;;;;;;10.60;99.90;;;;;;4990333;28;19933;-85
2022/04/09 09:27:40;;;;;;;;;;;10.70;99.90;;;;;;4991487;28;20014;-85
2022/04/09 09:30:07;;;;;;;;;;;10.70;99.90;;;;;;4990223;28;20268;-85
2022/04/09 09:32:34;;;;;;;;;;;10.80;99.90;;;;;;4990191;28;20177;-85
2022/04/09 09:34:59;;;;;;;;;;;10.80;99.90;;;;;;5006655;28;20247;-85
2022/04/09 09:37:25;;;;;;;;;;;10.90;99.90;;;;;;4990303;28;20546;-85
2022/04/09 09:39:51;;;;;;;;;;;10.90;99.90;;;;;;4990076;28;19933;-85
2022/04/09 09:42:21;;;;;;;;;;;10.90;99.90;;;;;;4990044;28;19914;-85
2022/04/09 09:44:46;;;;;;;;;;;10.80;99.90;;;;;;4991572;28;19920;-86
2022/04/09 09:47:12;;;;;;;;;;;10.80;99.90;;;;;;4991117;28;20398;-86
2022/04/09 09:49:56;;;;;;;;;;;10.80;99.90;;;;;;4991330;28;19913;-85
2022/04/09 09:52:26;;;;;;;;;;;10.80;99.90;;;;;;4991292;28;20432;-86
2022/04/09 09:54:57;;;;;;;;;;;10.90;99.90;;;;;;4991064;28;20367;-86
2022/04/09 09:57:25;;;;;;;;;;;11.00;99.90;;;;;;4991215;28;19910;-85
2022/04/09 09:59:52;;;;;;;;;;;11.00;99.90;;;;;;4990093;28;19906;-85
2022/04/09 10:02:19;;;;;;;;;;;11.10;99.90;;;;;;4991483;28;19918;-85
2022/04/09 10:04:46;;;;;;;;;;;11.20;99.90;;;;;;4995375;28;20270;-85
2022/04/09 10:07:13;;;;;;;;;;;11.30;99.90;;;;;;4994823;28;19914;-85
2022/04/09 10:09:39;;;;;;;;;;;11.30;99.90;;;;;;4995014;28;19949;-85
2022/04/09 10:12:08;;;;;;;;;;;11.20;99.90;;;;;;4994953;28;19961;-85
2022/04/09 10:14:34;;;;;;;;;;;11.10;99.90;;;;;;4997796;28;20378;-85
2022/04/09 10:17:00;;;;;;;;;;;11.10;99.90;;;;;;4997967;28;20480;-85
2022/04/09 10:19:25;;;;;;;;;;;11.10;99.90;;;;;;4995769;28;20092;-84
2022/04/09 10:21:51;;;;;;;;;;;11.10;99.90;;;;;;4993579;28;20053;-84
2022/04/09 10:24:19;;;;;;;;;;;11.20;99.90;;;;;;4994983;28;19921;-84
2022/04/09 10:26:45;;;;;;;;;;;11.30;99.90;;;;;;4996588;28;19910;-84
2022/04/09 10:29:10;;;;;;;;;;;11.50;99.90;;;;;;4998129;28;19964;-84
2022/04/09 10:31:39;;;;;;;;;;;11.50;99.90;;;;;;4994958;28;19913;-84
2022/04/09 10:34:06;;;;;;;;;;;11.50;99.90;;;;;;4994711;28;19925;-84
2022/04/09 10:36:40;;;;;;;;;;;11.50;99.90;;;;;;4994581;28;20341;-84
2022/04/09 10:39:42;;;;;;;;;;;11.60;99.90;;;;;;4995203;28;20432;-84
2022/04/09 10:42:08;;;;;;;;;;;11.50;99.90;;;;;;4994909;28;20385;-84
2022/04/09 10:44:42;;;;;;;;;;;11.50;99.90;;;;;;5001586;28;19906;-84
2022/04/09 10:47:08;;;;;;;;;;;11.50;99.90;;;;;;4996385;28;20417;-84
2022/04/09 10:49:34;;;;;;;;;;;11.60;99.90;;;;;;4997867;28;20306;-84
2022/04/09 10:52:06;;;;;;;;;;;11.50;99.90;;;;;;4997391;28;19910;-84
2022/04/09 10:54:36;;;;;;;;;;;11.70;99.90;;;;;;4994747;28;20366;-84
2022/04/09 10:57:24;;;;;;;;;;;11.80;99.90;;;;;;5000665;28;19905;-84
2022/04/09 10:59:57;;;;;;;;;;;11.70;99.90;;;;;;4994421;28;19910;-84
2022/04/09 11:02:23;;;;;;;;;;;11.70;99.90;;;;;;5000455;28;19952;-84
2022/04/09 11:04:48;;;;;;;;;;;11.70;99.90;;;;;;4997186;28;19905;-85
2022/04/09 11:07:23;;;;;;;;;;;11.80;99.90;;;;;;4994179;28;20281;-84
2022/04/09 11:10:03;;;;;;;;;;;11.80;99.90;;;;;;4995769;28;19976;-84
2022/04/09 11:12:38;;;;;;;;;;;11.90;99.90;;;;;;4996909;28;19933;-84
2022/04/09 11:15:04;;;;;;;;;;;12.00;99.90;;;;;;4995464;28;19906;-84
2022/04/09 11:17:36;;;;;;;;;;;12.00;99.90;;;;;;4996945;28;19913;-84
2022/04/09 11:20:12;;;;;;;;;;;12.00;99.90;;;;;;4993759;28;19917;-84
2022/04/09 11:22:38;;;;;;;;;;;12.00;99.90;;;;;;4997456;28;19941;-84
2022/04/09 11:25:05;;;;;;;;;;;12.00;99.90;;;;;;4996848;28;19910;-84
2022/04/09 11:27:31;;;;;;;;;;;12.00;99.90;;;;;;4997857;28;20098;-84
2022/04/09 11:29:57;;;;;;;;;;;12.10;99.90;;;;;;4996206;28;19980;-84
2022/04/09 11:32:23;;;;;;;;;;;12.10;99.90;;;;;;4994304;28;20383;-84
2022/04/09 11:34:58;;;;;;;;;;;12.00;99.90;;;;;;4993527;28;19910;-84
2022/04/09 11:37:26;;;;;;;;;;;12.00;99.90;;;;;;4997561;28;19906;-84
2022/04/09 11:39:52;;;;;;;;;;;12.10;99.90;;;;;;4994511;28;19948;-84
2022/04/09 11:42:18;;;;;;;;;;;12.30;99.90;;;;;;4994939;28;19957;-84
2022/04/09 11:44:44;;;;;;;;;;;12.40;99.90;;;;;;4993363;28;19914;-84
2022/04/09 11:47:13;;;;;;;;;;;12.20;99.90;;;;;;4996101;28;20000;-83
2022/04/09 11:49:40;;;;;;;;;;;12.20;99.90;;;;;;4995616;28;19913;-84
2022/04/09 11:52:06;;;;;;;;;;;12.30;99.90;;;;;;4993244;28;19910;-83
2022/04/09 11:54:32;;;;;;;;;;;12.40;99.90;;;;;;4993719;28;19916;-85
2022/04/09 11:56:59;;;;;;;;;;;12.50;99.90;;;;;;4993007;28;20329;-85
2022/04/09 11:59:25;;;;;;;;;;;12.60;99.90;;;;;;4995646;28;19914;-85
2022/04/09 12:01:51;;;;;;;;;;;12.60;99.90;;;;;;4993921;28;19910;-85
2022/04/09 12:04:18;;;;;;;;;;;12.50;99.90;;;;;;4994648;28;19913;-85
2022/04/09 12:06:44;;;;;;;;;;;12.50;99.90;;;;;;4993245;28;19910;-86
2022/04/09 12:09:09;;;;;;;;;;;12.40;99.90;;;;;;4992814;28;19929;-85
2022/04/09 12:11:39;;;;;;;;;;;12.50;99.90;;;;;;4991633;28;19945;-85
2022/04/09 12:14:13;;;;;;;;;;;12.60;99.90;;;;;;4992697;28;19953;-85
2022/04/09 12:16:39;;;;;;;;;;;12.80;99.90;;;;;;4994160;28;19910;-85
2022/04/09 12:19:08;;;;;;;;;;;12.60;99.90;;;;;;4993273;28;19969;-86
2022/04/09 12:21:35;;;;;;;;;;;12.70;99.90;;;;;;4996202;28;20048;-86
2022/04/09 12:24:02;;;;;;;;;;;12.80;99.90;;;;;;4997215;28;19914;-85
2022/04/09 12:26:28;;;;;;;;;;;12.90;99.90;;;;;;4992261;28;19909;-85
2022/04/09 12:29:09;;;;;;;;;;;12.90;99.90;;;;;;4994721;28;19912;-85
2022/04/09 12:31:38;;;;;;;;;;;13.10;99.90;;;;;;4995060;28;19949;-85
2022/04/09 12:34:04;;;;;;;;;;;13.10;99.90;;;;;;4992235;28;19925;-85
2022/04/09 12:36:30;;;;;;;;;;;13.10;99.90;;;;;;4994859;28;19910;-86
2022/04/09 12:38:56;;;;;;;;;;;13.10;99.90;;;;;;4994834;28;19910;-85
2022/04/09 12:41:21;;;;;;;;;;;13.10;99.90;;;;;;4995544;28;20411;-85
2022/04/09 12:43:49;;;;;;;;;;;13.20;99.90;;;;;;4992042;28;19971;-85
2022/04/09 12:46:15;;;;;;;;;;;13.10;99.90;;;;;;4991975;28;19909;-85
2022/04/09 12:48:47;;;;;;;;;;;13.00;99.90;;;;;;4993276;28;19917;-85
2022/04/09 12:51:14;;;;;;;;;;;13.00;99.90;;;;;;4998384;28;19919;-85
2022/04/09 12:53:41;;;;;;;;;;;13.10;99.90;;;;;;5012170;28;19912;-85
2022/04/09 12:56:14;;;;;;;;;;;13.30;99.90;;;;;;4991938;28;19965;-85
2022/04/09 12:58:39;;;;;;;;;;;13.30;99.90;;;;;;4991862;28;19910;-85
2022/04/09 13:01:06;;;;;;;;;;;13.30;99.90;;;;;;4992288;28;19961;-85
2022/04/09 13:03:33;;;;;;;;;;;13.30;99.90;;;;;;4992268;28;20212;-85
2022/04/09 13:05:59;;;;;;;;;;;13.20;99.90;;;;;;4990395;28;20263;-84
2022/04/09 13:08:25;;;;;;;;;;;13.30;99.90;;;;;;4993270;28;19922;-84
2022/04/09 13:10:53;;;;;;;;;;;13.40;99.90;;;;;;4993737;28;19914;-84
2022/04/09 13:13:22;;;;;;;;;;;13.60;99.90;;;;;;4991085;28;19910;-84
2022/04/09 13:15:48;;;;;;;;;;;13.80;99.90;;;;;;5009103;28;20132;-84
2022/04/09 13:18:13;;;;;;;;;;;13.80;99.90;;;;;;4992817;28;20221;-85
2022/04/09 13:20:39;;;;;;;;;;;13.90;99.90;;;;;;4993254;28;19955;-84
2022/04/09 13:23:05;;;;;;;;;;;14.00;99.90;;;;;;4995525;28;19913;-84
2022/04/09 13:25:31;;;;;;;;;;;14.00;99.90;;;;;;4993366;28;20287;-84
2022/04/09 13:27:57;;;;;;;;;;;14.20;99.90;;;;;;4997281;28;19906;-85
2022/04/09 13:30:26;;;;;;;;;;;14.30;99.90;;;;;;4989028;28;20362;-88
2022/04/09 13:32:53;;;;;;;;;;;14.10;99.90;;;;;;4992355;28;19913;-87
2022/04/09 13:35:19;;;;;;;;;;;13.90;99.90;;;;;;4991411;28;19910;-87
2022/04/09 13:37:44;;;;;;;;;;;14.00;99.90;;;;;;4990451;28;19910;-89
2022/04/09 13:40:11;;;;;;;;;;;14.10;99.90;;;;;;4991242;28;20282;-90
2022/04/09 13:42:36;;;;;;;;;;;14.10;99.90;;;;;;4993416;28;19924;-87
2022/04/09 13:45:03;;;;;;;;;;;14.20;99.90;;;;;;4990044;28;20013;-88
2022/04/09 13:47:28;;;;;;;;;;;14.30;99.90;;;;;;4991808;28;19917;-88
2022/04/09 13:49:54;;;;;;;;;;;14.50;99.90;;;;;;4991373;28;20278;-88
2022/04/09 13:52:20;;;;;;;;;;;14.40;99.90;;;;;;4993157;28;20286;-88
2022/04/09 13:54:46;;;;;;;;;;;14.60;99.20;;;;;;4991221;28;19910;-88
2022/04/09 13:57:11;;;;;;;;;;;14.90;98.40;;;;;;4993282;28;19917;-86
2022/04/09 13:59:37;;;;;;;;;;;14.80;98.00;;;;;;4991844;28;19997;-88
2022/04/09 14:02:03;;;;;;;;;;;14.70;98.40;;;;;;4992535;28;19918;-87
2022/04/09 14:04:29;;;;;;;;;;;15.00;98.00;;;;;;4990862;28;19910;-87
2022/04/09 14:06:54;;;;;;;;;;;15.20;98.30;;;;;;4990316;28;19909;-87
2022/04/09 14:09:20;;;;;;;;;;;15.10;97.50;;;;;;4992825;28;19997;-87
2022/04/09 14:11:46;;;;;;;;;;;15.90;96.60;;;;;;4989917;28;20413;-87
2022/04/09 14:14:13;;;;;;;;;;;16.50;94.60;;;;;;4991569;28;20421;-87
2022/04/09 14:16:38;;;;;;;;;;;16.60;93.90;;;;;;4989486;28;19910;-87
2022/04/09 14:19:04;;;;;;;;;;;17.10;92.80;;;;;;4990369;28;19969;-87
2022/04/09 14:21:32;;;;;;;;;;;18.00;93.20;;;;;;4983825;28;19914;-93